Nypd9 — WDH6196 — position and weather

sailwx.info

Track history (hours):
 
Tides and Currents Weather Stations Pressure Air Temp Water Temp Dewpoint Dewpoint Depression Visibility Wind Speed Wind Dir Waves Ship Positions

Nypd9

Owner: New York City Police Department, Brooklyn, NY. More information available from US FCC via Universal Licensing System.

Last reported at 2018-Mar-07 21:59 UTC. Time now 2018-Apr-23 21:28 UTC.
Position N 40°39' W 074°02'.
Warning: this ship's position is 46 days out of date.

Length 17 m; draft 1.2 m.

Type: Law enforcement. MMSI: 367635490.

Date/timePositionNaut miles runAvg speedWind from/ knotsBaromVisibWave heightAir tempDewpointWater temp
2018-Mar-07 21:59N 40°39' W 074°02'0 0.0
2018-Mar-07 21:29N 40°39' W 074°02'0 0.0
2018-Mar-07 21:00N 40°39' W 074°02'0 0.0
2018-Mar-07 20:30N 40°39' W 074°02'0 0.0
2018-Mar-07 20:00N 40°39' W 074°02'0 0.0
2018-Mar-07 19:30N 40°39' W 074°02'0 0.0
2018-Mar-07 19:00N 40°39' W 074°02'0 0.0
2018-Mar-07 18:30N 40°39' W 074°02'0 0.0
2018-Mar-06 11:30N 40°39' W 074°02'4 8.0
2018-Mar-06 11:00N 40°43' W 073°60'0 0.0
2018-Mar-06 10:30N 40°43' W 073°60'0 0.0
2018-Mar-06 10:00N 40°43' W 073°60'0 0.0
2018-Mar-06 09:00N 40°43' W 073°60'0 0.0
2018-Mar-06 08:30N 40°43' W 073°60'0 0.0
2018-Mar-06 08:00N 40°43' W 073°60'0 0.0
2018-Mar-06 07:30N 40°42' W 073°60'0 0.0
2018-Mar-06 07:00N 40°43' W 073°60'0 0.0
2018-Mar-06 06:30N 40°43' W 073°60'0 0.0
2018-Mar-06 06:00N 40°43' W 073°60'0 0.0
2018-Mar-06 05:30N 40°43' W 073°60'0 0.0
2018-Mar-06 05:00N 40°43' W 073°60'1 1.7
2018-Mar-06 04:30N 40°42' W 074°00'1 2.7
2018-Mar-06 04:00N 40°42' W 073°59'0 1.0
2018-Mar-06 03:30N 40°42' W 073°58'1 2.2
2018-Mar-06 03:00N 40°43' W 073°60'0 0.0
2018-Mar-06 02:30N 40°43' W 073°60'0 0.0
2018-Mar-06 02:00N 40°43' W 073°60'0 0.0
2018-Mar-06 01:29N 40°43' W 073°60'0 0.0
2018-Mar-06 01:00N 40°43' W 073°60'1 0.8
2018-Mar-06 00:00N 40°42' W 074°01'1 1.6
2018-Mar-05 23:30N 40°43' W 073°60'0 0.0
2018-Mar-05 23:00N 40°43' W 073°60'0 0.0
2018-Mar-05 22:30N 40°43' W 073°60'0 0.0
2018-Mar-05 21:59N 40°43' W 073°60'0 0.0
2018-Mar-05 21:30N 40°43' W 073°60'4 8.2
2018-Mar-05 21:00N 40°39' W 074°02'0 0.0
2018-Mar-05 19:26N 40°39' W 074°02'4 9.7
2018-Mar-05 19:01N 40°43' W 074°01'0 0.0
2018-Mar-05 18:31N 40°43' W 074°01'0 0.0
2018-Mar-05 18:00N 40°43' W 074°01'0 0.0
2018-Mar-05 17:31N 40°43' W 074°01'0 0.0
2018-Mar-05 17:01N 40°43' W 074°01'0 0.3
2018-Mar-05 16:30N 40°43' W 074°01'4 0.3
2018-Mar-05 03:56N 40°39' W 074°02'0 0.0
2018-Mar-05 03:29N 40°39' W 074°02'0 0.0
2018-Mar-05 03:00N 40°39' W 074°02'612.3
2018-Mar-05 02:29N 40°45' W 074°01'0 0.0
2018-Mar-05 02:00N 40°45' W 074°01'3 4.7
2018-Mar-05 01:28N 40°43' W 073°60'0 0.0
2018-Mar-05 01:00N 40°43' W 073°60'0 0.0
2018-Mar-05 00:30N 40°43' W 073°60'0 0.0
2018-Mar-05 00:00N 40°43' W 073°60'0 0.0
2018-Mar-04 23:30N 40°43' W 073°60'0 0.0
2018-Mar-04 23:00N 40°43' W 073°60'0 0.0
2018-Mar-04 22:30N 40°43' W 073°60'0 0.0
2018-Mar-04 22:00N 40°43' W 073°60'0 0.0
2018-Mar-04 21:30N 40°43' W 073°60'0 0.2
2018-Mar-04 21:00N 40°42' W 073°60'4 7.9
2018-Mar-04 20:30N 40°39' W 074°02'0 0.0
2018-Mar-04 19:27N 40°39' W 074°02'510.1
2018-Mar-04 19:00N 40°42' W 073°58'0 0.0
2018-Mar-04 18:30N 40°42' W 073°58'0 0.0
2018-Mar-04 18:00N 40°42' W 073°58'0 0.0
2018-Mar-04 17:30N 40°42' W 073°58'1 1.8
2018-Mar-04 17:00N 40°43' W 073°59'3 6.6
2018-Mar-04 16:29N 40°46' W 074°00'3 5.1
2018-Mar-04 16:00N 40°43' W 074°01'4 7.9
2018-Mar-04 15:27N 40°39' W 074°03'1 2.6
2018-Mar-04 15:00N 40°39' W 074°04'815.4
2018-Mar-04 14:30N 40°46' W 074°00'1 1.7
2018-Mar-04 14:00N 40°45' W 074°01'  
2018-Feb-25 23:50N 40°42' W 074°00'3 7.5
2018-Feb-25 23:30N 40°45' W 074°01'  
Track history (hours):
 
Tides and Currents Weather Stations Pressure Air Temp Water Temp Dewpoint Dewpoint Depression Visibility Wind Speed Wind Dir Waves Ship Positions

Nypd9

Owner: New York City Police Department, Brooklyn, NY. More information available from US FCC via Universal Licensing System.

Last reported at 2018-Mar-07 21:59 UTC. Time now 2018-Apr-23 21:28 UTC.
Position N 40°39' W 074°02'.
Warning: this ship's position is 46 days out of date.

Length 17 m; draft 1.2 m.

Type: Law enforcement. MMSI: 367635490.

Date/timePositionNaut miles runAvg speedWind from/ knotsBaromVisibWave heightAir tempDewpointWater temp
2018-Mar-07 21:59N 40°39' W 074°02'0 0.0
2018-Mar-07 21:29N 40°39' W 074°02'0 0.0
2018-Mar-07 21:00N 40°39' W 074°02'0 0.0
2018-Mar-07 20:30N 40°39' W 074°02'0 0.0
2018-Mar-07 20:00N 40°39' W 074°02'0 0.0
2018-Mar-07 19:30N 40°39' W 074°02'0 0.0
2018-Mar-07 19:00N 40°39' W 074°02'0 0.0
2018-Mar-07 18:30N 40°39' W 074°02'0 0.0
2018-Mar-06 11:30N 40°39' W 074°02'4 8.0
2018-Mar-06 11:00N 40°43' W 073°60'0 0.0
2018-Mar-06 10:30N 40°43' W 073°60'0 0.0
2018-Mar-06 10:00N 40°43' W 073°60'0 0.0
2018-Mar-06 09:00N 40°43' W 073°60'0 0.0
2018-Mar-06 08:30N 40°43' W 073°60'0 0.0
2018-Mar-06 08:00N 40°43' W 073°60'0 0.0
2018-Mar-06 07:30N 40°42' W 073°60'0 0.0
2018-Mar-06 07:00N 40°43' W 073°60'0 0.0
2018-Mar-06 06:30N 40°43' W 073°60'0 0.0
2018-Mar-06 06:00N 40°43' W 073°60'0 0.0
2018-Mar-06 05:30N 40°43' W 073°60'0 0.0
2018-Mar-06 05:00N 40°43' W 073°60'1 1.7
2018-Mar-06 04:30N 40°42' W 074°00'1 2.7
2018-Mar-06 04:00N 40°42' W 073°59'0 1.0
2018-Mar-06 03:30N 40°42' W 073°58'1 2.2
2018-Mar-06 03:00N 40°43' W 073°60'0 0.0
2018-Mar-06 02:30N 40°43' W 073°60'0 0.0
2018-Mar-06 02:00N 40°43' W 073°60'0 0.0
2018-Mar-06 01:29N 40°43' W 073°60'0 0.0
2018-Mar-06 01:00N 40°43' W 073°60'1 0.8
2018-Mar-06 00:00N 40°42' W 074°01'1 1.6
2018-Mar-05 23:30N 40°43' W 073°60'0 0.0
2018-Mar-05 23:00N 40°43' W 073°60'0 0.0
2018-Mar-05 22:30N 40°43' W 073°60'0 0.0
2018-Mar-05 21:59N 40°43' W 073°60'0 0.0
2018-Mar-05 21:30N 40°43' W 073°60'4 8.2
2018-Mar-05 21:00N 40°39' W 074°02'0 0.0
2018-Mar-05 19:26N 40°39' W 074°02'4 9.7
2018-Mar-05 19:01N 40°43' W 074°01'0 0.0
2018-Mar-05 18:31N 40°43' W 074°01'0 0.0
2018-Mar-05 18:00N 40°43' W 074°01'0 0.0
2018-Mar-05 17:31N 40°43' W 074°01'0 0.0
2018-Mar-05 17:01N 40°43' W 074°01'0 0.3
2018-Mar-05 16:30N 40°43' W 074°01'4 0.3
2018-Mar-05 03:56N 40°39' W 074°02'0 0.0
2018-Mar-05 03:29N 40°39' W 074°02'0 0.0
2018-Mar-05 03:00N 40°39' W 074°02'612.3
2018-Mar-05 02:29N 40°45' W 074°01'0 0.0
2018-Mar-05 02:00N 40°45' W 074°01'3 4.7
2018-Mar-05 01:28N 40°43' W 073°60'0 0.0
2018-Mar-05 01:00N 40°43' W 073°60'0 0.0
2018-Mar-05 00:30N 40°43' W 073°60'0 0.0
2018-Mar-05 00:00N 40°43' W 073°60'0 0.0
2018-Mar-04 23:30N 40°43' W 073°60'0 0.0
2018-Mar-04 23:00N 40°43' W 073°60'0 0.0
2018-Mar-04 22:30N 40°43' W 073°60'0 0.0
2018-Mar-04 22:00N 40°43' W 073°60'0 0.0
2018-Mar-04 21:30N 40°43' W 073°60'0 0.2
2018-Mar-04 21:00N 40°42' W 073°60'4 7.9
2018-Mar-04 20:30N 40°39' W 074°02'0 0.0
2018-Mar-04 19:27N 40°39' W 074°02'510.1
2018-Mar-04 19:00N 40°42' W 073°58'0 0.0
2018-Mar-04 18:30N 40°42' W 073°58'0 0.0
2018-Mar-04 18:00N 40°42' W 073°58'0 0.0
2018-Mar-04 17:30N 40°42' W 073°58'1 1.8
2018-Mar-04 17:00N 40°43' W 073°59'3 6.6
2018-Mar-04 16:29N 40°46' W 074°00'3 5.1
2018-Mar-04 16:00N 40°43' W 074°01'4 7.9
2018-Mar-04 15:27N 40°39' W 074°03'1 2.6
2018-Mar-04 15:00N 40°39' W 074°04'815.4
2018-Mar-04 14:30N 40°46' W 074°00'1 1.7
2018-Mar-04 14:00N 40°45' W 074°01'  
2018-Feb-25 23:50N 40°42' W 074°00'3 7.5
2018-Feb-25 23:30N 40°45' W 074°01'  

Dump ship's entire track history